Saint Paul Park, Minnesota
Current Conditions -  °F | °C
As of 3:30 AM on Sunday 23 Nov 2014 (Local Time) from KSGS Reporting Station
Haze Haze  
Wind Chill: 46°   Ceiling: 1800
Heat Index: 48°   Visibility: 5mi
Dew Point: 47°   Wind: 6mph
Humidity: 96%   Direction: 190°S
Pressure: 29.45"   Gusts: NA
Location:  44.84°N, 92.99°W
Report Text: KSGS 230930Z AUTO 19005KT 5SM BR BKN018 BKN029 OVC036 09/08 A2945 RMK AO2 T00900084
Loading
Personal Weather Stations






























Interactive Weather Map New forecast layout! Learn more

10-Day Weather Forecast

Advertisements
Track Severe Weather on mobile